sensor_id;sensor_type;location;lat;lon;timestamp;P1;durP1;ratioP1;P2;durP2;ratioP2
5351;SDS011;2698;51.454;6.736;2023-04-01T00:01:38;5.70;;;3.23;;
5351;SDS011;2698;51.454;6.736;2023-04-01T00:04:07;6.13;;;2.63;;
5351;SDS011;2698;51.454;6.736;2023-04-01T00:06:34;5.63;;;2.93;;
5351;SDS011;2698;51.454;6.736;2023-04-01T00:09:01;10.90;;;2.70;;
5351;SDS011;2698;51.454;6.736;2023-04-01T00:11:29;7.60;;;2.20;;
5351;SDS011;2698;51.454;6.736;2023-04-01T00:13:56;14.93;;;1.70;;
5351;SDS011;2698;51.454;6.736;2023-04-01T00:16:23;4.83;;;1.70;;
5351;SDS011;2698;51.454;6.736;2023-04-01T00:18:50;6.93;;;1.93;;
5351;SDS011;2698;51.454;6.736;2023-04-01T00:21:19;4.30;;;1.80;;
5351;SDS011;2698;51.454;6.736;2023-04-01T00:23:46;6.53;;;2.03;;
5351;SDS011;2698;51.454;6.736;2023-04-01T00:26:14;2.30;;;1.73;;
5351;SDS011;2698;51.454;6.736;2023-04-01T00:28:44;3.63;;;1.43;;
5351;SDS011;2698;51.454;6.736;2023-04-01T00:31:11;5.60;;;1.03;;
5351;SDS011;2698;51.454;6.736;2023-04-01T00:33:38;4.07;;;1.90;;
5351;SDS011;2698;51.454;6.736;2023-04-01T00:36:06;3.73;;;1.37;;
5351;SDS011;2698;51.454;6.736;2023-04-01T00:38:36;5.87;;;1.90;;
5351;SDS011;2698;51.454;6.736;2023-04-01T00:41:03;7.63;;;1.37;;
5351;SDS011;2698;51.454;6.736;2023-04-01T00:43:30;1.73;;;1.63;;
5351;SDS011;2698;51.454;6.736;2023-04-01T00:45:57;2.07;;;1.87;;
5351;SDS011;2698;51.454;6.736;2023-04-01T00:48:26;1.93;;;1.73;;
5351;SDS011;2698;51.454;6.736;2023-04-01T00:50:56;6.50;;;2.97;;
5351;SDS011;2698;51.454;6.736;2023-04-01T00:53:24;8.23;;;2.37;;
5351;SDS011;2698;51.454;6.736;2023-04-01T00:55:55;2.20;;;1.57;;
5351;SDS011;2698;51.454;6.736;2023-04-01T00:58:24;3.60;;;1.67;;
5351;SDS011;2698;51.454;6.736;2023-04-01T01:00:53;2.00;;;1.80;;
5351;SDS011;2698;51.454;6.736;2023-04-01T01:03:21;7.23;;;2.30;;
5351;SDS011;2698;51.454;6.736;2023-04-01T01:05:53;4.27;;;1.60;;
5351;SDS011;2698;51.454;6.736;2023-04-01T01:08:25;3.73;;;2.57;;
5351;SDS011;2698;51.454;6.736;2023-04-01T01:10:58;2.70;;;1.83;;
5351;SDS011;2698;51.454;6.736;2023-04-01T01:13:26;7.30;;;2.20;;
5351;SDS011;2698;51.454;6.736;2023-04-01T01:15:58;3.23;;;1.77;;
5351;SDS011;2698;51.454;6.736;2023-04-01T01:18:28;9.07;;;2.87;;
5351;SDS011;2698;51.454;6.736;2023-04-01T01:21:19;6.63;;;2.10;;
5351;SDS011;2698;51.454;6.736;2023-04-01T01:23:57;2.27;;;1.60;;
5351;SDS011;2698;51.454;6.736;2023-04-01T01:29:26;6.07;;;2.17;;
5351;SDS011;2698;51.454;6.736;2023-04-01T01:31:56;2.07;;;1.57;;
5351;SDS011;2698;51.454;6.736;2023-04-01T01:34:27;7.53;;;2.00;;
5351;SDS011;2698;51.454;6.736;2023-04-01T01:36:58;1.97;;;1.70;;
5351;SDS011;2698;51.454;6.736;2023-04-01T01:39:28;4.90;;;2.67;;
5351;SDS011;2698;51.454;6.736;2023-04-01T01:41:56;4.23;;;1.53;;
5351;SDS011;2698;51.454;6.736;2023-04-01T01:44:24;2.90;;;1.77;;
5351;SDS011;2698;51.454;6.736;2023-04-01T01:46:52;2.53;;;1.20;;
5351;SDS011;2698;51.454;6.736;2023-04-01T01:49:19;2.00;;;1.77;;
5351;SDS011;2698;51.454;6.736;2023-04-01T01:51:46;5.67;;;1.70;;
5351;SDS011;2698;51.454;6.736;2023-04-01T01:54:15;6.93;;;2.00;;
5351;SDS011;2698;51.454;6.736;2023-04-01T01:56:43;2.10;;;1.40;;
5351;SDS011;2698;51.454;6.736;2023-04-01T01:59:11;2.10;;;1.60;;
5351;SDS011;2698;51.454;6.736;2023-04-01T02:01:42;1.80;;;1.30;;
5351;SDS011;2698;51.454;6.736;2023-04-01T02:04:09;3.00;;;1.03;;
5351;SDS011;2698;51.454;6.736;2023-04-01T02:06:38;5.93;;;1.40;;
5351;SDS011;2698;51.454;6.736;2023-04-01T02:09:06;1.33;;;1.10;;
5351;SDS011;2698;51.454;6.736;2023-04-01T02:11:37;1.23;;;1.10;;
5351;SDS011;2698;51.454;6.736;2023-04-01T02:14:05;1.37;;;1.10;;
5351;SDS011;2698;51.454;6.736;2023-04-01T02:16:34;1.27;;;1.00;;
5351;SDS011;2698;51.454;6.736;2023-04-01T02:19:03;1.13;;;1.00;;
5351;SDS011;2698;51.454;6.736;2023-04-01T02:21:32;2.87;;;1.40;;
5351;SDS011;2698;51.454;6.736;2023-04-01T02:24:00;2.50;;;1.23;;
5351;SDS011;2698;51.454;6.736;2023-04-01T02:26:28;1.10;;;1.10;;
5351;SDS011;2698;51.454;6.736;2023-04-01T02:28:56;3.33;;;1.23;;
5351;SDS011;2698;51.454;6.736;2023-04-01T02:31:26;1.33;;;1.03;;
5351;SDS011;2698;51.454;6.736;2023-04-01T02:33:53;1.23;;;1.23;;
5351;SDS011;2698;51.454;6.736;2023-04-01T02:36:21;1.93;;;1.00;;
5351;SDS011;2698;51.454;6.736;2023-04-01T02:38:48;2.20;;;1.80;;
5351;SDS011;2698;51.454;6.736;2023-04-01T02:41:16;3.57;;;1.17;;
5351;SDS011;2698;51.454;6.736;2023-04-01T02:43:43;1.00;;;1.00;;
5351;SDS011;2698;51.454;6.736;2023-04-01T02:46:11;2.20;;;1.03;;
5351;SDS011;2698;51.454;6.736;2023-04-01T02:48:39;1.90;;;1.30;;
5351;SDS011;2698;51.454;6.736;2023-04-01T02:51:06;4.23;;;1.30;;
5351;SDS011;2698;51.454;6.736;2023-04-01T02:53:33;1.13;;;1.00;;
5351;SDS011;2698;51.454;6.736;2023-04-01T02:56:00;0.90;;;0.90;;
5351;SDS011;2698;51.454;6.736;2023-04-01T02:58:27;2.60;;;0.83;;
5351;SDS011;2698;51.454;6.736;2023-04-01T03:00:54;4.67;;;1.10;;
5351;SDS011;2698;51.454;6.736;2023-04-01T03:03:23;0.87;;;0.87;;
5351;SDS011;2698;51.454;6.736;2023-04-01T03:05:50;1.23;;;1.23;;
5351;SDS011;2698;51.454;6.736;2023-04-01T03:08:20;5.13;;;1.53;;
5351;SDS011;2698;51.454;6.736;2023-04-01T03:10:47;1.93;;;1.43;;
5351;SDS011;2698;51.454;6.736;2023-04-01T03:13:14;4.63;;;1.47;;
5351;SDS011;2698;51.454;6.736;2023-04-01T03:15:41;3.43;;;1.53;;
5351;SDS011;2698;51.454;6.736;2023-04-01T03:18:08;1.53;;;1.43;;
5351;SDS011;2698;51.454;6.736;2023-04-01T03:20:37;2.60;;;1.70;;
5351;SDS011;2698;51.454;6.736;2023-04-01T03:23:04;2.67;;;1.50;;
5351;SDS011;2698;51.454;6.736;2023-04-01T03:25:31;4.00;;;1.90;;
5351;SDS011;2698;51.454;6.736;2023-04-01T03:27:58;10.97;;;1.40;;
5351;SDS011;2698;51.454;6.736;2023-04-01T03:30:26;2.30;;;1.70;;
5351;SDS011;2698;51.454;6.736;2023-04-01T03:32:54;2.73;;;1.50;;
5351;SDS011;2698;51.454;6.736;2023-04-01T03:35:22;2.77;;;1.87;;
5351;SDS011;2698;51.454;6.736;2023-04-01T03:37:51;1.00;;;1.00;;
5351;SDS011;2698;51.454;6.736;2023-04-01T03:40:18;4.77;;;1.70;;
5351;SDS011;2698;51.454;6.736;2023-04-01T03:42:45;2.67;;;1.47;;
5351;SDS011;2698;51.454;6.736;2023-04-01T03:45:12;2.77;;;1.60;;
5351;SDS011;2698;51.454;6.736;2023-04-01T03:47:40;4.97;;;1.87;;
5351;SDS011;2698;51.454;6.736;2023-04-01T03:50:07;2.23;;;1.47;;
5351;SDS011;2698;51.454;6.736;2023-04-01T03:52:35;2.27;;;2.07;;
5351;SDS011;2698;51.454;6.736;2023-04-01T03:55:03;2.20;;;1.90;;
5351;SDS011;2698;51.454;6.736;2023-04-01T03:57:31;4.20;;;1.50;;
5351;SDS011;2698;51.454;6.736;2023-04-01T03:59:58;1.60;;;1.50;;
5351;SDS011;2698;51.454;6.736;2023-04-01T04:02:25;1.73;;;1.63;;
5351;SDS011;2698;51.454;6.736;2023-04-01T04:04:52;2.27;;;2.07;;
5351;SDS011;2698;51.454;6.736;2023-04-01T04:07:19;2.60;;;2.00;;
5351;SDS011;2698;51.454;6.736;2023-04-01T04:09:46;3.80;;;2.10;;
5351;SDS011;2698;51.454;6.736;2023-04-01T04:12:15;1.63;;;1.53;;
5351;SDS011;2698;51.454;6.736;2023-04-01T04:14:42;12.60;;;2.60;;
5351;SDS011;2698;51.454;6.736;2023-04-01T04:17:09;4.10;;;2.27;;
5351;SDS011;2698;51.454;6.736;2023-04-01T04:19:40;2.77;;;1.87;;
5351;SDS011;2698;51.454;6.736;2023-04-01T04:22:08;9.40;;;2.30;;
5351;SDS011;2698;51.454;6.736;2023-04-01T04:24:35;4.60;;;1.80;;
5351;SDS011;2698;51.454;6.736;2023-04-01T04:27:02;2.50;;;1.87;;
5351;SDS011;2698;51.454;6.736;2023-04-01T04:29:31;2.30;;;1.70;;
5351;SDS011;2698;51.454;6.736;2023-04-01T04:31:58;1.93;;;1.83;;
5351;SDS011;2698;51.454;6.736;2023-04-01T04:34:25;2.73;;;2.07;;
5351;SDS011;2698;51.454;6.736;2023-04-01T04:36:52;2.40;;;1.83;;
5351;SDS011;2698;51.454;6.736;2023-04-01T04:39:19;1.87;;;1.73;;
5351;SDS011;2698;51.454;6.736;2023-04-01T04:41:46;2.07;;;1.90;;
5351;SDS011;2698;51.454;6.736;2023-04-01T04:44:13;1.87;;;1.77;;
5351;SDS011;2698;51.454;6.736;2023-04-01T04:46:42;2.40;;;2.17;;
5351;SDS011;2698;51.454;6.736;2023-04-01T04:49:09;2.20;;;2.03;;
5351;SDS011;2698;51.454;6.736;2023-04-01T04:51:36;2.50;;;2.20;;
5351;SDS011;2698;51.454;6.736;2023-04-01T04:54:03;3.77;;;2.10;;
5351;SDS011;2698;51.454;6.736;2023-04-01T04:56:31;2.50;;;2.37;;
5351;SDS011;2698;51.454;6.736;2023-04-01T04:58:58;2.13;;;2.03;;
5351;SDS011;2698;51.454;6.736;2023-04-01T05:01:25;3.20;;;1.83;;
5351;SDS011;2698;51.454;6.736;2023-04-01T05:03:54;3.73;;;2.40;;
5351;SDS011;2698;51.454;6.736;2023-04-01T05:06:21;3.10;;;2.50;;
5351;SDS011;2698;51.454;6.736;2023-04-01T05:08:48;2.40;;;2.30;;
5351;SDS011;2698;51.454;6.736;2023-04-01T05:11:16;3.20;;;2.73;;
5351;SDS011;2698;51.454;6.736;2023-04-01T05:13:44;1.97;;;1.87;;
5351;SDS011;2698;51.454;6.736;2023-04-01T05:16:12;2.40;;;2.00;;
5351;SDS011;2698;51.454;6.736;2023-04-01T05:18:39;2.87;;;2.20;;
5351;SDS011;2698;51.454;6.736;2023-04-01T05:21:08;1.87;;;1.73;;
5351;SDS011;2698;51.454;6.736;2023-04-01T05:23:35;4.30;;;2.43;;
5351;SDS011;2698;51.454;6.736;2023-04-01T05:26:03;2.33;;;2.13;;
5351;SDS011;2698;51.454;6.736;2023-04-01T05:28:30;3.17;;;2.90;;
5351;SDS011;2698;51.454;6.736;2023-04-01T05:30:58;3.00;;;2.70;;
5351;SDS011;2698;51.454;6.736;2023-04-01T05:33:25;3.53;;;3.10;;
5351;SDS011;2698;51.454;6.736;2023-04-01T05:35:53;3.30;;;3.10;;
5351;SDS011;2698;51.454;6.736;2023-04-01T05:38:21;3.07;;;2.77;;
5351;SDS011;2698;51.454;6.736;2023-04-01T05:40:48;3.70;;;3.40;;
5351;SDS011;2698;51.454;6.736;2023-04-01T05:43:16;5.33;;;3.30;;
5351;SDS011;2698;51.454;6.736;2023-04-01T05:45:43;4.63;;;4.23;;
5351;SDS011;2698;51.454;6.736;2023-04-01T05:48:10;5.27;;;4.87;;
5351;SDS011;2698;51.454;6.736;2023-04-01T05:50:37;5.10;;;4.70;;
5351;SDS011;2698;51.454;6.736;2023-04-01T05:53:06;5.13;;;4.43;;
5351;SDS011;2698;51.454;6.736;2023-04-01T05:55:35;4.43;;;4.13;;
5351;SDS011;2698;51.454;6.736;2023-04-01T05:58:02;4.80;;;4.50;;
5351;SDS011;2698;51.454;6.736;2023-04-01T06:00:30;5.60;;;5.20;;
5351;SDS011;2698;51.454;6.736;2023-04-01T06:02:58;4.83;;;4.43;;
5351;SDS011;2698;51.454;6.736;2023-04-01T06:05:27;5.50;;;3.63;;
5351;SDS011;2698;51.454;6.736;2023-04-01T06:07:55;5.13;;;4.73;;
5351;SDS011;2698;51.454;6.736;2023-04-01T06:10:25;4.77;;;4.40;;
5351;SDS011;2698;51.454;6.736;2023-04-01T06:12:58;5.33;;;4.83;;
5351;SDS011;2698;51.454;6.736;2023-04-01T06:15:30;5.13;;;4.73;;
5351;SDS011;2698;51.454;6.736;2023-04-01T06:18:08;5.53;;;5.07;;
5351;SDS011;2698;51.454;6.736;2023-04-01T06:20:39;5.77;;;4.67;;
5351;SDS011;2698;51.454;6.736;2023-04-01T06:23:24;4.53;;;4.13;;
5351;SDS011;2698;51.454;6.736;2023-04-01T06:28:44;5.20;;;4.70;;
5351;SDS011;2698;51.454;6.736;2023-04-01T06:31:19;5.97;;;4.50;;
5351;SDS011;2698;51.454;6.736;2023-04-01T06:33:52;5.03;;;4.63;;
5351;SDS011;2698;51.454;6.736;2023-04-01T06:36:26;7.43;;;4.60;;
5351;SDS011;2698;51.454;6.736;2023-04-01T06:39:05;5.10;;;4.70;;
5351;SDS011;2698;51.454;6.736;2023-04-01T06:41:36;5.37;;;4.87;;
5351;SDS011;2698;51.454;6.736;2023-04-01T06:44:09;5.23;;;4.77;;
5351;SDS011;2698;51.454;6.736;2023-04-01T06:46:44;5.10;;;4.60;;
5351;SDS011;2698;51.454;6.736;2023-04-01T06:49:19;4.60;;;4.30;;
5351;SDS011;2698;51.454;6.736;2023-04-01T06:51:50;4.70;;;4.40;;
5351;SDS011;2698;51.454;6.736;2023-04-01T06:54:20;4.13;;;3.90;;
5351;SDS011;2698;51.454;6.736;2023-04-01T06:56:49;4.50;;;4.20;;
5351;SDS011;2698;51.454;6.736;2023-04-01T06:59:22;4.67;;;4.37;;
5351;SDS011;2698;51.454;6.736;2023-04-01T07:01:52;5.23;;;4.83;;
5351;SDS011;2698;51.454;6.736;2023-04-01T07:04:21;5.00;;;4.60;;
5351;SDS011;2698;51.454;6.736;2023-04-01T07:06:50;5.10;;;4.70;;
5351;SDS011;2698;51.454;6.736;2023-04-01T07:09:19;5.00;;;4.70;;
5351;SDS011;2698;51.454;6.736;2023-04-01T07:11:47;5.23;;;4.83;;
5351;SDS011;2698;51.454;6.736;2023-04-01T07:14:16;5.40;;;4.90;;
5351;SDS011;2698;51.454;6.736;2023-04-01T07:16:48;4.70;;;4.40;;
5351;SDS011;2698;51.454;6.736;2023-04-01T07:19:18;6.97;;;5.73;;
5351;SDS011;2698;51.454;6.736;2023-04-01T07:21:49;6.00;;;5.50;;
5351;SDS011;2698;51.454;6.736;2023-04-01T07:24:20;4.73;;;4.33;;
5351;SDS011;2698;51.454;6.736;2023-04-01T07:26:54;5.13;;;4.73;;
5351;SDS011;2698;51.454;6.736;2023-04-01T07:29:21;4.70;;;4.30;;
5351;SDS011;2698;51.454;6.736;2023-04-01T07:31:56;5.80;;;5.30;;
5351;SDS011;2698;51.454;6.736;2023-04-01T07:34:27;6.83;;;5.70;;
5351;SDS011;2698;51.454;6.736;2023-04-01T07:36:57;6.10;;;5.60;;
5351;SDS011;2698;51.454;6.736;2023-04-01T07:39:30;5.50;;;5.10;;
5351;SDS011;2698;51.454;6.736;2023-04-01T07:42:01;5.37;;;4.90;;
5351;SDS011;2698;51.454;6.736;2023-04-01T07:44:32;6.50;;;5.90;;
5351;SDS011;2698;51.454;6.736;2023-04-01T07:47:08;5.27;;;4.87;;
5351;SDS011;2698;51.454;6.736;2023-04-01T07:49:40;5.47;;;5.07;;
5351;SDS011;2698;51.454;6.736;2023-04-01T07:52:11;6.23;;;5.77;;
5351;SDS011;2698;51.454;6.736;2023-04-01T07:54:42;5.97;;;5.43;;
5351;SDS011;2698;51.454;6.736;2023-04-01T07:57:15;6.63;;;5.90;;
5351;SDS011;2698;51.454;6.736;2023-04-01T07:59:45;7.10;;;6.30;;
5351;SDS011;2698;51.454;6.736;2023-04-01T08:02:22;11.50;;;7.67;;
5351;SDS011;2698;51.454;6.736;2023-04-01T08:04:55;7.10;;;6.50;;
5351;SDS011;2698;51.454;6.736;2023-04-01T08:07:25;7.63;;;6.93;;
5351;SDS011;2698;51.454;6.736;2023-04-01T08:09:58;6.93;;;6.23;;
5351;SDS011;2698;51.454;6.736;2023-04-01T08:12:31;9.57;;;7.10;;
5351;SDS011;2698;51.454;6.736;2023-04-01T08:15:01;7.27;;;6.53;;
5351;SDS011;2698;51.454;6.736;2023-04-01T08:17:35;7.33;;;6.70;;
5351;SDS011;2698;51.454;6.736;2023-04-01T08:20:07;6.60;;;5.70;;
5351;SDS011;2698;51.454;6.736;2023-04-01T08:22:37;7.13;;;5.90;;
5351;SDS011;2698;51.454;6.736;2023-04-01T08:25:10;6.53;;;5.90;;
5351;SDS011;2698;51.454;6.736;2023-04-01T08:27:41;9.03;;;5.73;;
5351;SDS011;2698;51.454;6.736;2023-04-01T08:30:15;6.20;;;5.70;;
5351;SDS011;2698;51.454;6.736;2023-04-01T08:32:46;7.37;;;6.73;;
5351;SDS011;2698;51.454;6.736;2023-04-01T08:35:16;6.63;;;5.67;;
5351;SDS011;2698;51.454;6.736;2023-04-01T08:37:44;5.47;;;5.07;;
5351;SDS011;2698;51.454;6.736;2023-04-01T08:40:22;7.43;;;6.73;;
5351;SDS011;2698;51.454;6.736;2023-04-01T08:42:59;7.57;;;6.70;;
5351;SDS011;2698;51.454;6.736;2023-04-01T08:45:32;8.50;;;6.10;;
5351;SDS011;2698;51.454;6.736;2023-04-01T08:48:13;6.93;;;6.33;;
5351;SDS011;2698;51.454;6.736;2023-04-01T08:50:49;9.20;;;6.23;;
5351;SDS011;2698;51.454;6.736;2023-04-01T08:53:24;9.77;;;6.70;;
5351;SDS011;2698;51.454;6.736;2023-04-01T08:55:59;6.37;;;5.77;;
5351;SDS011;2698;51.454;6.736;2023-04-01T08:58:32;8.73;;;7.27;;
5351;SDS011;2698;51.454;6.736;2023-04-01T09:01:10;8.53;;;7.63;;
5351;SDS011;2698;51.454;6.736;2023-04-01T09:03:43;6.53;;;5.80;;
5351;SDS011;2698;51.454;6.736;2023-04-01T09:09:09;9.67;;;7.13;;
5351;SDS011;2698;51.454;6.736;2023-04-01T09:11:44;7.40;;;6.70;;
5351;SDS011;2698;51.454;6.736;2023-04-01T09:14:23;9.77;;;8.00;;
5351;SDS011;2698;51.454;6.736;2023-04-01T09:17:00;9.30;;;8.03;;
5351;SDS011;2698;51.454;6.736;2023-04-01T09:19:34;9.20;;;8.30;;
5351;SDS011;2698;51.454;6.736;2023-04-01T09:22:09;10.60;;;9.43;;
5351;SDS011;2698;51.454;6.736;2023-04-01T09:24:58;12.30;;;9.77;;
5351;SDS011;2698;51.454;6.736;2023-04-01T09:27:27;10.87;;;8.50;;
5351;SDS011;2698;51.454;6.736;2023-04-01T09:30:06;10.70;;;9.23;;
5351;SDS011;2698;51.454;6.736;2023-04-01T09:35:26;11.17;;;8.80;;
5351;SDS011;2698;51.454;6.736;2023-04-01T09:38:00;11.43;;;9.57;;
5351;SDS011;2698;51.454;6.736;2023-04-01T09:40:32;14.60;;;10.80;;
5351;SDS011;2698;51.454;6.736;2023-04-01T09:43:06;10.10;;;8.73;;
5351;SDS011;2698;51.454;6.736;2023-04-01T09:45:37;11.60;;;10.07;;
5351;SDS011;2698;51.454;6.736;2023-04-01T09:48:16;11.43;;;10.23;;
5351;SDS011;2698;51.454;6.736;2023-04-01T09:50:48;11.50;;;10.30;;
5351;SDS011;2698;51.454;6.736;2023-04-01T09:53:24;10.10;;;9.00;;
5351;SDS011;2698;51.454;6.736;2023-04-01T09:56:03;14.20;;;10.30;;
5351;SDS011;2698;51.454;6.736;2023-04-01T09:58:45;15.13;;;11.00;;
5351;SDS011;2698;51.454;6.736;2023-04-01T10:04:12;12.23;;;10.93;;
5351;SDS011;2698;51.454;6.736;2023-04-01T10:09:45;14.33;;;11.83;;
5351;SDS011;2698;51.454;6.736;2023-04-01T10:15:10;14.53;;;11.33;;
5351;SDS011;2698;51.454;6.736;2023-04-01T10:17:53;20.53;;;10.67;;
5351;SDS011;2698;51.454;6.736;2023-04-01T10:23:14;13.53;;;10.30;;
5351;SDS011;2698;51.454;6.736;2023-04-01T10:26:06;13.87;;;11.07;;
5351;SDS011;2698;51.454;6.736;2023-04-01T10:28:42;13.93;;;12.00;;
5351;SDS011;2698;51.454;6.736;2023-04-01T10:31:23;14.03;;;11.83;;
5351;SDS011;2698;51.454;6.736;2023-04-01T10:33:57;20.73;;;12.00;;
5351;SDS011;2698;51.454;6.736;2023-04-01T10:36:46;13.50;;;12.07;;
5351;SDS011;2698;51.454;6.736;2023-04-01T10:39:33;16.20;;;11.93;;
5351;SDS011;2698;51.454;6.736;2023-04-01T10:45:04;11.13;;;10.10;;
5351;SDS011;2698;51.454;6.736;2023-04-01T10:55:53;12.33;;;11.03;;
5351;SDS011;2698;51.454;6.736;2023-04-01T11:01:30;15.43;;;13.20;;
5351;SDS011;2698;51.454;6.736;2023-04-01T11:04:22;13.47;;;12.07;;
5351;SDS011;2698;51.454;6.736;2023-04-01T11:09:58;19.80;;;12.93;;
5351;SDS011;2698;51.454;6.736;2023-04-01T11:26:23;13.57;;;11.27;;
5351;SDS011;2698;51.454;6.736;2023-04-01T11:29:03;12.03;;;10.73;;
5351;SDS011;2698;51.454;6.736;2023-04-01T11:31:46;11.40;;;10.27;;
5351;SDS011;2698;51.454;6.736;2023-04-01T11:34:28;15.70;;;12.87;;
5351;SDS011;2698;51.454;6.736;2023-04-01T11:37:02;22.30;;;12.63;;
5351;SDS011;2698;51.454;6.736;2023-04-01T11:39:33;22.97;;;12.60;;
5351;SDS011;2698;51.454;6.736;2023-04-01T11:42:09;18.33;;;14.10;;
5351;SDS011;2698;51.454;6.736;2023-04-01T11:44:40;18.27;;;12.90;;
5351;SDS011;2698;51.454;6.736;2023-04-01T11:50:00;13.33;;;11.67;;
5351;SDS011;2698;51.454;6.736;2023-04-01T11:52:50;14.57;;;12.00;;
5351;SDS011;2698;51.454;6.736;2023-04-01T11:55:32;17.87;;;13.80;;
5351;SDS011;2698;51.454;6.736;2023-04-01T11:58:15;19.53;;;12.47;;
5351;SDS011;2698;51.454;6.736;2023-04-01T12:00:52;13.80;;;12.33;;
5351;SDS011;2698;51.454;6.736;2023-04-01T12:03:31;13.00;;;10.93;;
5351;SDS011;2698;51.454;6.736;2023-04-01T12:06:05;15.87;;;12.70;;
5351;SDS011;2698;51.454;6.736;2023-04-01T12:08:39;12.97;;;11.67;;
5351;SDS011;2698;51.454;6.736;2023-04-01T12:11:09;13.07;;;11.07;;
5351;SDS011;2698;51.454;6.736;2023-04-01T12:13:45;13.70;;;10.97;;
5351;SDS011;2698;51.454;6.736;2023-04-01T12:16:21;12.23;;;11.03;;
5351;SDS011;2698;51.454;6.736;2023-04-01T12:18:51;13.87;;;10.80;;
5351;SDS011;2698;51.454;6.736;2023-04-01T12:21:22;10.47;;;9.37;;
5351;SDS011;2698;51.454;6.736;2023-04-01T12:32:17;9.37;;;8.47;;
5351;SDS011;2698;51.454;6.736;2023-04-01T12:34:53;10.17;;;9.17;;
5351;SDS011;2698;51.454;6.736;2023-04-01T12:37:27;10.77;;;9.77;;
5351;SDS011;2698;51.454;6.736;2023-04-01T12:40:09;11.47;;;10.10;;
5351;SDS011;2698;51.454;6.736;2023-04-01T12:42:47;11.27;;;10.00;;
5351;SDS011;2698;51.454;6.736;2023-04-01T12:45:27;13.63;;;9.80;;
5351;SDS011;2698;51.454;6.736;2023-04-01T12:48:08;12.37;;;9.97;;
5351;SDS011;2698;51.454;6.736;2023-04-01T12:50:55;10.80;;;9.70;;
5351;SDS011;2698;51.454;6.736;2023-04-01T12:53:31;12.83;;;9.60;;
5351;SDS011;2698;51.454;6.736;2023-04-01T12:56:06;14.27;;;11.20;;
5351;SDS011;2698;51.454;6.736;2023-04-01T12:58:40;11.30;;;10.13;;
5351;SDS011;2698;51.454;6.736;2023-04-01T13:04:23;12.07;;;10.80;;
5351;SDS011;2698;51.454;6.736;2023-04-01T13:06:58;11.70;;;10.60;;
5351;SDS011;2698;51.454;6.736;2023-04-01T13:09:32;14.93;;;11.83;;
5351;SDS011;2698;51.454;6.736;2023-04-01T13:12:04;12.73;;;11.40;;
5351;SDS011;2698;51.454;6.736;2023-04-01T13:14:48;11.53;;;10.40;;
5351;SDS011;2698;51.454;6.736;2023-04-01T13:17:19;16.20;;;11.43;;
5351;SDS011;2698;51.454;6.736;2023-04-01T13:19:50;15.13;;;12.33;;
5351;SDS011;2698;51.454;6.736;2023-04-01T13:22:20;16.20;;;12.33;;
5351;SDS011;2698;51.454;6.736;2023-04-01T13:24:51;17.47;;;12.57;;
5351;SDS011;2698;51.454;6.736;2023-04-01T13:27:24;12.03;;;10.83;;
5351;SDS011;2698;51.454;6.736;2023-04-01T13:29:59;17.13;;;13.10;;
5351;SDS011;2698;51.454;6.736;2023-04-01T13:32:29;13.23;;;11.13;;
5351;SDS011;2698;51.454;6.736;2023-04-01T13:35:03;14.80;;;10.73;;
5351;SDS011;2698;51.454;6.736;2023-04-01T13:37:38;15.40;;;11.57;;
5351;SDS011;2698;51.454;6.736;2023-04-01T13:40:14;17.00;;;12.00;;
5351;SDS011;2698;51.454;6.736;2023-04-01T13:42:45;18.30;;;12.40;;
5351;SDS011;2698;51.454;6.736;2023-04-01T13:45:14;19.10;;;13.43;;
5351;SDS011;2698;51.454;6.736;2023-04-01T13:47:50;14.07;;;11.60;;
5351;SDS011;2698;51.454;6.736;2023-04-01T13:50:33;16.33;;;12.47;;
5351;SDS011;2698;51.454;6.736;2023-04-01T13:55:47;14.23;;;11.50;;
5351;SDS011;2698;51.454;6.736;2023-04-01T13:58:20;16.43;;;10.97;;
5351;SDS011;2698;51.454;6.736;2023-04-01T14:00:53;13.87;;;11.60;;
5351;SDS011;2698;51.454;6.736;2023-04-01T14:03:28;12.33;;;10.67;;
5351;SDS011;2698;51.454;6.736;2023-04-01T14:06:04;15.53;;;11.93;;
5351;SDS011;2698;51.454;6.736;2023-04-01T14:08:36;15.70;;;11.67;;
5351;SDS011;2698;51.454;6.736;2023-04-01T14:11:10;15.57;;;11.50;;
5351;SDS011;2698;51.454;6.736;2023-04-01T14:13:41;12.17;;;10.87;;
5351;SDS011;2698;51.454;6.736;2023-04-01T14:16:21;11.30;;;10.10;;
5351;SDS011;2698;51.454;6.736;2023-04-01T14:18:52;14.80;;;10.90;;
5351;SDS011;2698;51.454;6.736;2023-04-01T14:21:28;17.13;;;10.80;;
5351;SDS011;2698;51.454;6.736;2023-04-01T14:24:03;13.47;;;11.20;;
5351;SDS011;2698;51.454;6.736;2023-04-01T14:26:44;11.27;;;9.60;;
5351;SDS011;2698;51.454;6.736;2023-04-01T14:29:18;11.10;;;9.97;;
5351;SDS011;2698;51.454;6.736;2023-04-01T14:31:54;11.90;;;9.90;;
5351;SDS011;2698;51.454;6.736;2023-04-01T14:34:29;14.47;;;10.27;;
5351;SDS011;2698;51.454;6.736;2023-04-01T14:37:03;13.27;;;10.40;;
5351;SDS011;2698;51.454;6.736;2023-04-01T14:39:39;10.53;;;9.20;;
5351;SDS011;2698;51.454;6.736;2023-04-01T14:42:18;11.47;;;10.27;;
5351;SDS011;2698;51.454;6.736;2023-04-01T14:44:55;16.00;;;9.60;;
5351;SDS011;2698;51.454;6.736;2023-04-01T14:47:37;11.30;;;10.10;;
5351;SDS011;2698;51.454;6.736;2023-04-01T14:50:08;11.10;;;10.00;;
5351;SDS011;2698;51.454;6.736;2023-04-01T14:52:39;14.53;;;10.73;;
5351;SDS011;2698;51.454;6.736;2023-04-01T14:57:59;14.70;;;9.70;;
5351;SDS011;2698;51.454;6.736;2023-04-01T15:00:27;10.57;;;9.23;;
5351;SDS011;2698;51.454;6.736;2023-04-01T15:03:01;11.70;;;10.50;;
5351;SDS011;2698;51.454;6.736;2023-04-01T15:05:32;20.10;;;11.50;;
5351;SDS011;2698;51.454;6.736;2023-04-01T15:08:06;10.20;;;8.57;;
5351;SDS011;2698;51.454;6.736;2023-04-01T15:13:23;12.53;;;9.37;;
5351;SDS011;2698;51.454;6.736;2023-04-01T15:15:57;10.23;;;9.07;;
5351;SDS011;2698;51.454;6.736;2023-04-01T15:18:29;10.70;;;8.37;;
5351;SDS011;2698;51.454;6.736;2023-04-01T15:21:06;10.20;;;9.10;;
5351;SDS011;2698;51.454;6.736;2023-04-01T15:23:45;10.00;;;9.10;;
5351;SDS011;2698;51.454;6.736;2023-04-01T15:26:18;11.90;;;9.20;;
5351;SDS011;2698;51.454;6.736;2023-04-01T15:28:52;14.80;;;9.20;;
5351;SDS011;2698;51.454;6.736;2023-04-01T15:31:24;10.17;;;8.90;;
5351;SDS011;2698;51.454;6.736;2023-04-01T15:34:07;8.73;;;7.50;;
5351;SDS011;2698;51.454;6.736;2023-04-01T15:36:37;8.50;;;7.70;;
5351;SDS011;2698;51.454;6.736;2023-04-01T15:39:10;9.40;;;8.57;;
5351;SDS011;2698;51.454;6.736;2023-04-01T15:41:42;9.33;;;8.37;;
5351;SDS011;2698;51.454;6.736;2023-04-01T15:44:27;8.40;;;7.63;;
5351;SDS011;2698;51.454;6.736;2023-04-01T15:47:00;9.13;;;8.20;;
5351;SDS011;2698;51.454;6.736;2023-04-01T15:49:30;8.13;;;7.43;;
5351;SDS011;2698;51.454;6.736;2023-04-01T15:52:03;8.80;;;7.90;;
5351;SDS011;2698;51.454;6.736;2023-04-01T15:54:37;9.03;;;8.20;;
5351;SDS011;2698;51.454;6.736;2023-04-01T15:59:54;9.40;;;8.50;;
5351;SDS011;2698;51.454;6.736;2023-04-01T16:02:27;8.60;;;7.77;;
5351;SDS011;2698;51.454;6.736;2023-04-01T16:04:58;9.00;;;8.20;;
5351;SDS011;2698;51.454;6.736;2023-04-01T16:07:30;9.67;;;8.73;;
5351;SDS011;2698;51.454;6.736;2023-04-01T16:10:03;8.20;;;7.40;;
5351;SDS011;2698;51.454;6.736;2023-04-01T16:12:42;8.03;;;7.27;;
5351;SDS011;2698;51.454;6.736;2023-04-01T16:15:15;9.13;;;8.10;;
5351;SDS011;2698;51.454;6.736;2023-04-01T16:17:50;8.27;;;7.47;;
5351;SDS011;2698;51.454;6.736;2023-04-01T16:20:20;8.30;;;7.50;;
5351;SDS011;2698;51.454;6.736;2023-04-01T16:22:49;7.70;;;7.00;;
5351;SDS011;2698;51.454;6.736;2023-04-01T16:25:24;8.90;;;8.00;;
5351;SDS011;2698;51.454;6.736;2023-04-01T16:27:56;8.83;;;8.03;;
5351;SDS011;2698;51.454;6.736;2023-04-01T16:30:26;8.50;;;7.70;;
5351;SDS011;2698;51.454;6.736;2023-04-01T16:33:00;8.37;;;7.50;;
5351;SDS011;2698;51.454;6.736;2023-04-01T16:35:30;8.13;;;7.37;;
5351;SDS011;2698;51.454;6.736;2023-04-01T16:38:03;8.20;;;7.40;;
5351;SDS011;2698;51.454;6.736;2023-04-01T16:40:40;8.73;;;7.83;;
5351;SDS011;2698;51.454;6.736;2023-04-01T16:43:14;8.07;;;7.27;;
5351;SDS011;2698;51.454;6.736;2023-04-01T16:45:45;9.30;;;7.90;;
5351;SDS011;2698;51.454;6.736;2023-04-01T16:48:19;11.30;;;8.90;;
5351;SDS011;2698;51.454;6.736;2023-04-01T16:50:52;9.63;;;8.73;;
5351;SDS011;2698;51.454;6.736;2023-04-01T16:53:21;10.20;;;9.20;;
5351;SDS011;2698;51.454;6.736;2023-04-01T16:55:54;9.63;;;8.63;;